Aviation Digital Data Service (ADDS)

Output produced by METARs form (1506 UTC 20 March 2019)
found at http://www.aviationweather.gov/metar/data/
 
METAR text: KALO 201454Z 27010KT 2SM BR OVC002 02/01 A3002 RMK AO2 SLP175 I3000 T00170011 58005
Conditions at: KALO (WATERLOO , IA, US) observed 1454 UTC 20 March 2019
Temperature: 1.7°C (35°F)
Dewpoint: 1.1°C (34°F) [RH = 96%]
Pressure (altimeter): 30.02 inches Hg (1016.7 mb)
[Sea-level pressure: 1017.5 mb]
Winds: from the W (270 degrees) at 12 MPH (10 knots; 5.1 m/s)
Visibility: 2.00 miles (3.22 km)
Ceiling: 200 feet AGL
Clouds: overcast cloud deck at 200 feet AGL
Weather: BR  (mist)

METAR text: KALO 201447Z 25010KT 2SM BR OVC002 02/02 A3002 RMK AO2 T00220017
Conditions at: KALO (WATERLOO , IA, US) observed 1447 UTC 20 March 2019
Temperature: 2.2°C (36°F)
Dewpoint: 1.7°C (35°F) [RH = 96%]
Pressure (altimeter): 30.02 inches Hg (1016.7 mb)
Winds: from the WSW (250 degrees) at 12 MPH (10 knots; 5.1 m/s)
Visibility: 2.00 miles (3.22 km)
Ceiling: 200 feet AGL
Clouds: overcast cloud deck at 200 feet AGL
Weather: BR  (mist)

METAR text: KALO 201438Z 27010KT 1 3/4SM R12/3000VP6000FT BR OVC002 02/02 A3003 RMK AO2 T00220017
Conditions at: KALO (WATERLOO , IA, US) observed 1438 UTC 20 March 2019
Temperature: 2.2°C (36°F)
Dewpoint: 1.7°C (35°F) [RH = 96%]
Pressure (altimeter): 30.03 inches Hg (1017.0 mb)
Winds: from the W (270 degrees) at 12 MPH (10 knots; 5.1 m/s)
Visibility: 1.75 miles (2.82 km)
Ceiling: 200 feet AGL
Clouds: overcast cloud deck at 200 feet AGL
Weather: BR  (mist)

METAR text: KALO 201431Z 28009KT 3/4SM R12/2200VP6000FT BR OVC002 02/01 A3003 RMK AO2 T00170011
Conditions at: KALO (WATERLOO , IA, US) observed 1431 UTC 20 March 2019
Temperature: 1.7°C (35°F)
Dewpoint: 1.1°C (34°F) [RH = 96%]
Pressure (altimeter): 30.03 inches Hg (1017.0 mb)
Winds: from the W (280 degrees) at 10 MPH (9 knots; 4.6 m/s)
Visibility: 0.75 miles (1.21 km)
Ceiling: 200 feet AGL
Clouds: overcast cloud deck at 200 feet AGL
Weather: BR  (mist)

METAR text: KALO 201354Z 27009KT 1/4SM R12/1400V1600FT FG OVC002 01/01 A3003 RMK AO2 SLP178 T00110006
Conditions at: KALO (WATERLOO , IA, US) observed 1354 UTC 20 March 2019
Temperature: 1.1°C (34°F)
Dewpoint: 0.6°C (33°F) [RH = 96%]
Pressure (altimeter): 30.03 inches Hg (1017.0 mb)
[Sea-level pressure: 1017.8 mb]
Winds: from the W (270 degrees) at 10 MPH (9 knots; 4.6 m/s)
Visibility: 0.25 miles (0.40 km)
Ceiling: 200 feet AGL
Clouds: overcast cloud deck at 200 feet AGL
Weather: FG  (fog)

METAR text: KALO 201351Z 27008KT 1/4SM R12/1600V2000FT FG OVC002 01/01 A3003 RMK AO2
Conditions at: KALO (WATERLOO , IA, US) observed 1351 UTC 20 March 2019
Temperature: 1.0°C (34°F)
Dewpoint: 1.0°C (34°F) [RH = 100%]
Pressure (altimeter): 30.03 inches Hg (1017.0 mb)
Winds: from the W (270 degrees) at 9 MPH (8 knots; 4.1 m/s)
Visibility: 0.25 miles (0.40 km)
Ceiling: 200 feet AGL
Clouds: overcast cloud deck at 200 feet AGL
Weather: FG  (fog)

METAR text: KALO 201340Z 28009KT 1/2SM R12/2000V4500FT FG OVC002 01/01 A3004 RMK AO2 CIG 002V005 T00110006
Conditions at: KALO (WATERLOO , IA, US) observed 1340 UTC 20 March 2019
Temperature: 1.1°C (34°F)
Dewpoint: 0.6°C (33°F) [RH = 96%]
Pressure (altimeter): 30.04 inches Hg (1017.4 mb)
Winds: from the W (280 degrees) at 10 MPH (9 knots; 4.6 m/s)
Visibility: 0.50 miles (0.80 km)
Ceiling: 200 feet AGL
Clouds: overcast cloud deck at 200 feet AGL
Weather: FG  (fog)

METAR text: KALO 201329Z 28009KT 1 3/4SM R12/6000VP6000FT BR BKN004 01/01 A3004 RMK AO2 CIG 002V006 T00110006
Conditions at: KALO (WATERLOO , IA, US) observed 1329 UTC 20 March 2019
Temperature: 1.1°C (34°F)
Dewpoint: 0.6°C (33°F) [RH = 96%]
Pressure (altimeter): 30.04 inches Hg (1017.4 mb)
Winds: from the W (280 degrees) at 10 MPH (9 knots; 4.6 m/s)
Visibility: 1.75 miles (2.82 km)
Ceiling: 400 feet AGL
Clouds: broken clouds at 400 feet AGL
Weather: BR  (mist)

METAR text: KALO 201322Z 28008KT 4SM BR BKN004 01/00 A3004 RMK AO2 T00110000
Conditions at: KALO (WATERLOO , IA, US) observed 1322 UTC 20 March 2019
Temperature: 1.1°C (34°F)
Dewpoint: 0.0°C (32°F) [RH = 92%]
Pressure (altimeter): 30.04 inches Hg (1017.4 mb)
Winds: from the W (280 degrees) at 9 MPH (8 knots; 4.1 m/s)
Visibility: 4 miles ( 6 km)
Ceiling: 400 feet AGL
Clouds: broken clouds at 400 feet AGL
Weather: BR  (mist)

METAR text: KALO 201313Z 27005KT 3SM BR FEW006 00/M01 A3003 RMK AO2 T00001006
Conditions at: KALO (WATERLOO , IA, US) observed 1313 UTC 20 March 2019
Temperature: 0.0°C (32°F)
Dewpoint: -0.6°C (31°F) [RH = 96%]
Pressure (altimeter): 30.03 inches Hg (1017.0 mb)
Winds: from the W (270 degrees) at 6 MPH (5 knots; 2.6 m/s)
Visibility: 3 miles ( 5 km)
Ceiling: at least 12,000 feet AGL
Clouds: few clouds at 600 feet AGL
Weather: BR  (mist)

METAR text: KALO 201254Z 00000KT 2SM BR CLR M01/M01 A3004 RMK AO2 SLP180 I1000 T10061011
Conditions at: KALO (WATERLOO , IA, US) observed 1254 UTC 20 March 2019
Temperature: -0.6°C (31°F)
Dewpoint: -1.1°C (30°F) [RH = 96%]
Pressure (altimeter): 30.04 inches Hg (1017.4 mb)
[Sea-level pressure: 1018.0 mb]
Winds: calm
Visibility: 2.00 miles (3.22 km)
Ceiling: at least 12,000 feet AGL
Clouds: sky clear below 12,000 feet AGL
Weather: BR  (mist)

METAR text: KALO 201249Z 23003KT 2SM BR CLR M01/M01 A3004 RMK AO2 I1000
Conditions at: KALO (WATERLOO , IA, US) observed 1249 UTC 20 March 2019
Temperature: -1.0°C (30°F)
Dewpoint: -1.0°C (30°F) [RH = 100%]
Pressure (altimeter): 30.04 inches Hg (1017.4 mb)
Winds: from the SW (230 degrees) at 3 MPH (3 knots; 1.5 m/s)
Visibility: 2.00 miles (3.22 km)
Ceiling: at least 12,000 feet AGL
Clouds: sky clear below 12,000 feet AGL
Weather: BR  (mist)

METAR text: KALO 201217Z 20004KT 1SM R12/3500VP6000FT BR CLR M01/M02 A3005 RMK AO2 I1000 T10111022
Conditions at: KALO (WATERLOO , IA, US) observed 1217 UTC 20 March 2019
Temperature: -1.1°C (30°F)
Dewpoint: -2.2°C (28°F) [RH = 92%]
Pressure (altimeter): 30.05 inches Hg (1017.7 mb)
Winds: from the SSW (200 degrees) at 5 MPH (4 knots; 2.1 m/s)
Visibility: 1.00 miles (1.61 km)
Ceiling: at least 12,000 feet AGL
Clouds: sky clear below 12,000 feet AGL
Weather: BR  (mist)

METAR text: KALO 201201Z 20003KT 2 1/2SM R12/2000VP6000FT BR CLR M01/M02 A3005 RMK AO2 T10111022
Conditions at: KALO (WATERLOO , IA, US) observed 1201 UTC 20 March 2019
Temperature: -1.1°C (30°F)
Dewpoint: -2.2°C (28°F) [RH = 92%]
Pressure (altimeter): 30.05 inches Hg (1017.7 mb)
Winds: from the SSW (200 degrees) at 3 MPH (3 knots; 1.5 m/s)
Visibility: 2.50 miles (4.02 km)
Ceiling: at least 12,000 feet AGL
Clouds: sky clear below 12,000 feet AGL
Weather: BR  (mist)

METAR text: KALO 201154Z 19004KT 1 3/4SM R12/1600VP6000FT BR CLR M02/M03 A3005 RMK AO2 SLP184 I1001 I6001 T10221028 10033 21028 56006
Conditions at: KALO (WATERLOO , IA, US) observed 1154 UTC 20 March 2019
Temperature: -2.2°C (28°F)
Dewpoint: -2.8°C (27°F) [RH = 96%]
Pressure (altimeter): 30.05 inches Hg (1017.7 mb)
[Sea-level pressure: 1018.4 mb]
Winds: from the S (190 degrees) at 5 MPH (4 knots; 2.1 m/s)
Visibility: 1.75 miles (2.82 km)
Ceiling: at least 12,000 feet AGL
Clouds: sky clear below 12,000 feet AGL
Weather: BR  (mist)

METAR text: KALO 201149Z 20004KT 1 1/4SM R12/1600V4000FT BR CLR M02/M03 A3005 RMK AO2 I1001
Conditions at: KALO (WATERLOO , IA, US) observed 1149 UTC 20 March 2019
Temperature: -2.0°C (28°F)
Dewpoint: -3.0°C (27°F) [RH = 93%]
Pressure (altimeter): 30.05 inches Hg (1017.7 mb)
Winds: from the SSW (200 degrees) at 5 MPH (4 knots; 2.1 m/s)
Visibility: 1.25 miles (2.01 km)
Ceiling: at least 12,000 feet AGL
Clouds: sky clear below 12,000 feet AGL
Weather: BR  (mist)

METAR text: KALO 201142Z 19003KT 2SM R12/2000V2800FT BR CLR M02/M03 A3005 RMK AO2 I1000 T10171028
Conditions at: KALO (WATERLOO , IA, US) observed 1142 UTC 20 March 2019
Temperature: -1.7°C (29°F)
Dewpoint: -2.8°C (27°F) [RH = 92%]
Pressure (altimeter): 30.05 inches Hg (1017.7 mb)
Winds: from the S (190 degrees) at 3 MPH (3 knots; 1.5 m/s)
Visibility: 2.00 miles (3.22 km)
Ceiling: at least 12,000 feet AGL
Clouds: sky clear below 12,000 feet AGL
Weather: BR  (mist)

METAR text: KALO 201134Z 20003KT 1 1/4SM R12/1600V2600FT BR FEW022 M02/M03 A3005 RMK AO2 I1000 T10221028
Conditions at: KALO (WATERLOO , IA, US) observed 1134 UTC 20 March 2019
Temperature: -2.2°C (28°F)
Dewpoint: -2.8°C (27°F) [RH = 96%]
Pressure (altimeter): 30.05 inches Hg (1017.7 mb)
Winds: from the SSW (200 degrees) at 3 MPH (3 knots; 1.5 m/s)
Visibility: 1.25 miles (2.01 km)
Ceiling: at least 12,000 feet AGL
Clouds: few clouds at 2200 feet AGL
Weather: BR  (mist)

METAR text: KALO 201111Z 00000KT 1/2SM R12/1200V1800FT FZFG FEW004 FEW022 M03/M03 A3006 RMK AO2 T10281033
Conditions at: KALO (WATERLOO , IA, US) observed 1111 UTC 20 March 2019
Temperature: -2.8°C (27°F)
Dewpoint: -3.3°C (26°F) [RH = 96%]
Pressure (altimeter): 30.06 inches Hg (1018.0 mb)
Winds: calm
Visibility: 0.50 miles (0.80 km)
Ceiling: at least 12,000 feet AGL
Clouds: few clouds at 400 feet AGL
few clouds at 2200 feet AGL
Weather: FZFG  (freezing fog)

METAR text: KALO 201109Z 00000KT 1SM R12/1200V1600FT BR VV003 M03/M03 A3006 RMK AO2 T10281033
Conditions at: KALO (WATERLOO , IA, US) observed 1109 UTC 20 March 2019
Temperature: -2.8°C (27°F)
Dewpoint: -3.3°C (26°F) [RH = 96%]
Pressure (altimeter): 30.06 inches Hg (1018.0 mb)
Winds: calm
Visibility: 1.00 miles (1.61 km)
Ceiling: indefinite ceiling with vertical visibility of 300 feet AGL
Clouds: obscured sky
Weather: BR  (mist)

METAR text: KALO 201104Z 00000KT 2SM R12/1200V1800FT BR SCT003 M01/M02 A3006 RMK AO2 T10111022
Conditions at: KALO (WATERLOO , IA, US) observed 1104 UTC 20 March 2019
Temperature: -1.1°C (30°F)
Dewpoint: -2.2°C (28°F) [RH = 92%]
Pressure (altimeter): 30.06 inches Hg (1018.0 mb)
Winds: calm
Visibility: 2.00 miles (3.22 km)
Ceiling: at least 12,000 feet AGL
Clouds: scattered clouds at 300 feet AGL
Weather: BR  (mist)

METAR text: KALO 201100Z 00000KT 1SM R12/1400V4000FT BR VV003 M02/M03 A3006 RMK AO2 T10171028
Conditions at: KALO (WATERLOO , IA, US) observed 1100 UTC 20 March 2019
Temperature: -1.7°C (29°F)
Dewpoint: -2.8°C (27°F) [RH = 92%]
Pressure (altimeter): 30.06 inches Hg (1018.0 mb)
Winds: calm
Visibility: 1.00 miles (1.61 km)
Ceiling: indefinite ceiling with vertical visibility of 300 feet AGL
Clouds: obscured sky
Weather: BR  (mist)

METAR text: KALO 201054Z 00000KT 1/4SM R12/1400V4000FT FZFG VV003 M02/M03 A3006 RMK AO2 SLP186 I1000 T10221028
Conditions at: KALO (WATERLOO , IA, US) observed 1054 UTC 20 March 2019
Temperature: -2.2°C (28°F)
Dewpoint: -2.8°C (27°F) [RH = 96%]
Pressure (altimeter): 30.06 inches Hg (1018.0 mb)
[Sea-level pressure: 1018.6 mb]
Winds: calm
Visibility: 0.25 miles (0.40 km)
Ceiling: indefinite ceiling with vertical visibility of 300 feet AGL
Clouds: obscured sky
Weather: FZFG  (freezing fog)

METAR text: KALO 201043Z 00000KT 1/4SM R12/2000VP6000FT FZFG VV003 M02/M02 A3006 RMK AO2 T10221022
Conditions at: KALO (WATERLOO , IA, US) observed 1043 UTC 20 March 2019
Temperature: -2.2°C (28°F)
Dewpoint: -2.2°C (28°F) [RH = 100%]
Pressure (altimeter): 30.06 inches Hg (1018.0 mb)
Winds: calm
Visibility: 0.25 miles (0.40 km)
Ceiling: indefinite ceiling with vertical visibility of 300 feet AGL
Clouds: obscured sky
Weather: FZFG  (freezing fog)

METAR text: KALO 201034Z AUTO 00000KT 3/4SM R12/2200V5500FT BR VV003 M02/M03 A3006 RMK AO2 T10221033
Conditions at: KALO (WATERLOO , IA, US) observed 1034 UTC 20 March 2019
Temperature: -2.2°C (28°F)
Dewpoint: -3.3°C (26°F) [RH = 92%]
Pressure (altimeter): 30.06 inches Hg (1018.0 mb)
Winds: calm
Visibility: 0.75 miles (1.21 km)
Ceiling: indefinite ceiling with vertical visibility of 300 feet AGL
Clouds: obscured sky
Weather: BR  (mist)

METAR text: KALO 201031Z AUTO 00000KT 1 1/2SM R12/1800V5500FT BR FEW004 M02/M03 A3006 RMK AO2 T10221033
Conditions at: KALO (WATERLOO , IA, US) observed 1031 UTC 20 March 2019
Temperature: -2.2°C (28°F)
Dewpoint: -3.3°C (26°F) [RH = 92%]
Pressure (altimeter): 30.06 inches Hg (1018.0 mb)
Winds: calm
Visibility: 1.50 miles (2.41 km)
Ceiling: at least 12,000 feet AGL
Clouds: few clouds at 400 feet AGL
Weather: BR  (mist)

METAR text: KALO 201026Z AUTO 00000KT 3SM R12/1800V4500FT BR CLR M02/M03 A3006 RMK AO2 T10221028
Conditions at: KALO (WATERLOO , IA, US) observed 1026 UTC 20 March 2019
Temperature: -2.2°C (28°F)
Dewpoint: -2.8°C (27°F) [RH = 96%]
Pressure (altimeter): 30.06 inches Hg (1018.0 mb)
Winds: calm
Visibility: 3 miles ( 5 km)
Ceiling: at least 12,000 feet AGL
Clouds: sky clear below 12,000 feet AGL
Weather: BR  (mist)

METAR text: KALO 201017Z AUTO 00000KT 1SM R12/2800VP6000FT BR CLR M02/M03 A3007 RMK AO2 T10171028
Conditions at: KALO (WATERLOO , IA, US) observed 1017 UTC 20 March 2019
Temperature: -1.7°C (29°F)
Dewpoint: -2.8°C (27°F) [RH = 92%]
Pressure (altimeter): 30.07 inches Hg (1018.4 mb)
Winds: calm
Visibility: 1.00 miles (1.61 km)
Ceiling: at least 12,000 feet AGL
Clouds: sky clear below 12,000 feet AGL
Weather: BR  (mist)

METAR text: KALO 201007Z AUTO 00000KT 2SM R12/2000VP6000FT BR CLR M01/M02 A3007 RMK AO2 VIS 1 1/4V3 T10111022
Conditions at: KALO (WATERLOO , IA, US) observed 1007 UTC 20 March 2019
Temperature: -1.1°C (30°F)
Dewpoint: -2.2°C (28°F) [RH = 92%]
Pressure (altimeter): 30.07 inches Hg (1018.4 mb)
Winds: calm
Visibility: 2.00 miles (3.22 km)
Ceiling: at least 12,000 feet AGL
Clouds: sky clear below 12,000 feet AGL
Weather: BR  (mist)

METAR text: KALO 200954Z AUTO 00000KT 4SM BR CLR M01/M02 A3007 RMK AO2 SLP189 T10111017
Conditions at: KALO (WATERLOO , IA, US) observed 0954 UTC 20 March 2019
Temperature: -1.1°C (30°F)
Dewpoint: -1.7°C (29°F) [RH = 96%]
Pressure (altimeter): 30.07 inches Hg (1018.4 mb)
[Sea-level pressure: 1018.9 mb]
Winds: calm
Visibility: 4 miles ( 6 km)
Ceiling: at least 12,000 feet AGL
Clouds: sky clear below 12,000 feet AGL
Weather: BR  (mist)

METAR text: KALO 200854Z AUTO 00000KT 9SM CLR 01/00 A3009 RMK AO2 SLP197 T00110000 58023
Conditions at: KALO (WATERLOO , IA, US) observed 0854 UTC 20 March 2019
Temperature: 1.1°C (34°F)
Dewpoint: 0.0°C (32°F) [RH = 92%]
Pressure (altimeter): 30.09 inches Hg (1019.0 mb)
[Sea-level pressure: 1019.7 mb]
Winds: calm
Visibility: 9 miles (14 km)
Ceiling: at least 12,000 feet AGL
Clouds: sky clear below 12,000 feet AGL
Weather: automated observation with no human augmentation;
there may or may not be significant weather present at this time

METAR text: KALO 200754Z AUTO 22006KT 10SM CLR 01/M01 A3012 RMK AO2 SLP205 T00111006
Conditions at: KALO (WATERLOO , IA, US) observed 0754 UTC 20 March 2019
Temperature: 1.1°C (34°F)
Dewpoint: -0.6°C (31°F) [RH = 88%]
Pressure (altimeter): 30.12 inches Hg (1020.1 mb)
[Sea-level pressure: 1020.5 mb]
Winds: from the SW (220 degrees) at 7 MPH (6 knots; 3.1 m/s)
Visibility: 10 or more miles (16+ km)
Ceiling: at least 12,000 feet AGL
Clouds: sky clear below 12,000 feet AGL
Weather: automated observation with no human augmentation;
there may or may not be significant weather present at this time

METAR text: KALO 200654Z AUTO 24007KT 10SM CLR 02/M01 A3014 RMK AO2 SLP214 T00221006
Conditions at: KALO (WATERLOO , IA, US) observed 0654 UTC 20 March 2019
Temperature: 2.2°C (36°F)
Dewpoint: -0.6°C (31°F) [RH = 82%]
Pressure (altimeter): 30.14 inches Hg (1020.7 mb)
[Sea-level pressure: 1021.4 mb]
Winds: from the WSW (240 degrees) at 8 MPH (7 knots; 3.6 m/s)
Visibility: 10 or more miles (16+ km)
Ceiling: at least 12,000 feet AGL
Clouds: sky clear below 12,000 feet AGL
Weather: automated observation with no human augmentation;
there may or may not be significant weather present at this time

METAR text: KALO 200554Z AUTO 24005KT 10SM CLR 03/M01 A3016 RMK AO2 SLP220 T00331006 10078 20011 400941039 58009
Conditions at: KALO (WATERLOO , IA, US) observed 0554 UTC 20 March 2019
Temperature: 3.3°C (38°F)
Dewpoint: -0.6°C (31°F) [RH = 76%]
Pressure (altimeter): 30.16 inches Hg (1021.4 mb)
[Sea-level pressure: 1022.0 mb]
Winds: from the WSW (240 degrees) at 6 MPH (5 knots; 2.6 m/s)
Visibility: 10 or more miles (16+ km)
Ceiling: at least 12,000 feet AGL
Clouds: sky clear below 12,000 feet AGL
Weather: automated observation with no human augmentation;
there may or may not be significant weather present at this time

METAR text: KALO 200454Z AUTO 24007KT 10SM OVC110 03/M01 A3018 RMK AO2 SLP226 T00281006
Conditions at: KALO (WATERLOO , IA, US) observed 0454 UTC 20 March 2019
Temperature: 2.8°C (37°F)
Dewpoint: -0.6°C (31°F) [RH = 78%]
Pressure (altimeter): 30.18 inches Hg (1022.1 mb)
[Sea-level pressure: 1022.6 mb]
Winds: from the WSW (240 degrees) at 8 MPH (7 knots; 3.6 m/s)
Visibility: 10 or more miles (16+ km)
Ceiling: 11000 feet AGL
Clouds: overcast cloud deck at 11000 feet AGL
Weather: automated observation with no human augmentation;
there may or may not be significant weather present at this time

METAR text: KALO 200354Z AUTO 27003KT 10SM OVC110 02/M01 A3019 RMK AO2 SLP231 T00171011
Conditions at: KALO (WATERLOO , IA, US) observed 0354 UTC 20 March 2019
Temperature: 1.7°C (35°F)
Dewpoint: -1.1°C (30°F) [RH = 82%]
Pressure (altimeter): 30.19 inches Hg (1022.4 mb)
[Sea-level pressure: 1023.1 mb]
Winds: from the W (270 degrees) at 3 MPH (3 knots; 1.5 m/s)
Visibility: 10 or more miles (16+ km)
Ceiling: 11000 feet AGL
Clouds: overcast cloud deck at 11000 feet AGL
Weather: automated observation with no human augmentation;
there may or may not be significant weather present at this time

METAR text: KALO 200254Z AUTO 00000KT 10SM OVC110 02/M01 A3019 RMK AO2 SLP232 T00171011 58006
Conditions at: KALO (WATERLOO , IA, US) observed 0254 UTC 20 March 2019
Temperature: 1.7°C (35°F)
Dewpoint: -1.1°C (30°F) [RH = 82%]
Pressure (altimeter): 30.19 inches Hg (1022.4 mb)
[Sea-level pressure: 1023.2 mb]
Winds: calm
Visibility: 10 or more miles (16+ km)
Ceiling: 11000 feet AGL
Clouds: overcast cloud deck at 11000 feet AGL
Weather: automated observation with no human augmentation;
there may or may not be significant weather present at this time

METAR text: KALO 200154Z AUTO 00000KT 10SM OVC110 03/M01 A3020 RMK AO2 SLP235 T00281011
Conditions at: KALO (WATERLOO , IA, US) observed 0154 UTC 20 March 2019
Temperature: 2.8°C (37°F)
Dewpoint: -1.1°C (30°F) [RH = 75%]
Pressure (altimeter): 30.20 inches Hg (1022.8 mb)
[Sea-level pressure: 1023.5 mb]
Winds: calm
Visibility: 10 or more miles (16+ km)
Ceiling: 11000 feet AGL
Clouds: overcast cloud deck at 11000 feet AGL
Weather: automated observation with no human augmentation;
there may or may not be significant weather present at this time

METAR text: KALO 200054Z 19004KT 10SM FEW110 06/M01 A3020 RMK AO2 SLP236 T00611006
Conditions at: KALO (WATERLOO , IA, US) observed 0054 UTC 20 March 2019
Temperature: 6.1°C (43°F)
Dewpoint: -0.6°C (31°F) [RH = 62%]
Pressure (altimeter): 30.20 inches Hg (1022.8 mb)
[Sea-level pressure: 1023.6 mb]
Winds: from the S (190 degrees) at 5 MPH (4 knots; 2.1 m/s)
Visibility: 10 or more miles (16+ km)
Ceiling: at least 12,000 feet AGL
Clouds: few clouds at 11000 feet AGL
Weather: no significant weather observed at this time

METAR text: KALO 192354Z 17003KT 10SM CLR 08/M01 A3021 RMK AO2 SLP238 T00781006 10094 20072 56014
Conditions at: KALO (WATERLOO , IA, US) observed 2354 UTC 19 March 2019
Temperature: 7.8°C (46°F)
Dewpoint: -0.6°C (31°F) [RH = 55%]
Pressure (altimeter): 30.21 inches Hg (1023.1 mb)
[Sea-level pressure: 1023.8 mb]
Winds: from the S (170 degrees) at 3 MPH (3 knots; 1.5 m/s)
Visibility: 10 or more miles (16+ km)
Ceiling: at least 12,000 feet AGL
Clouds: sky clear below 12,000 feet AGL
Weather: no significant weather observed at this time

METAR text: KALO 192254Z 21005KT 10SM CLR 08/00 A3022 RMK AO2 SLP241 T00830000
Conditions at: KALO (WATERLOO , IA, US) observed 2254 UTC 19 March 2019
Temperature: 8.3°C (47°F)
Dewpoint: 0.0°C (32°F) [RH = 56%]
Pressure (altimeter): 30.22 inches Hg (1023.5 mb)
[Sea-level pressure: 1024.1 mb]
Winds: from the SSW (210 degrees) at 6 MPH (5 knots; 2.6 m/s)
Visibility: 10 or more miles (16+ km)
Ceiling: at least 12,000 feet AGL
Clouds: sky clear below 12,000 feet AGL
Weather: no significant weather observed at this time

METAR text: KALO 192154Z 10SM CLR 09/M01 A3023 RMK AO2 SLP245 T00941006
Conditions at: KALO (WATERLOO , IA, US) observed 2154 UTC 19 March 2019
Temperature: 9.4°C (49°F)
Dewpoint: -0.6°C (31°F) [RH = 50%]
Pressure (altimeter): 30.23 inches Hg (1023.8 mb)
[Sea-level pressure: 1024.5 mb]
Winds: missing
Visibility: 10 or more miles (16+ km)
Ceiling: at least 12,000 feet AGL
Clouds: sky clear below 12,000 feet AGL
Weather: no significant weather observed at this time

METAR text: KALO 192054Z 19010KT 10SM CLR 09/M01 A3025 RMK AO2 SLP251 T00941006
Conditions at: KALO (WATERLOO , IA, US) observed 2054 UTC 19 March 2019
Temperature: 9.4°C (49°F)
Dewpoint: -0.6°C (31°F) [RH = 50%]
Pressure (altimeter): 30.25 inches Hg (1024.5 mb)
[Sea-level pressure: 1025.1 mb]
Winds: from the S (190 degrees) at 12 MPH (10 knots; 5.1 m/s)
Visibility: 10 or more miles (16+ km)
Ceiling: at least 12,000 feet AGL
Clouds: sky clear below 12,000 feet AGL
Weather: no significant weather observed at this time

METAR text: KALO 191954Z 10SM CLR 09/M01 A3027 RMK AO2 SLP258 T00941006
Conditions at: KALO (WATERLOO , IA, US) observed 1954 UTC 19 March 2019
Temperature: 9.4°C (49°F)
Dewpoint: -0.6°C (31°F) [RH = 50%]
Pressure (altimeter): 30.27 inches Hg (1025.1 mb)
[Sea-level pressure: 1025.8 mb]
Winds: missing
Visibility: 10 or more miles (16+ km)
Ceiling: at least 12,000 feet AGL
Clouds: sky clear below 12,000 feet AGL
Weather: no significant weather observed at this time

METAR text: KALO 191854Z 10SM CLR 09/00 A3030 RMK AO2 SLP269 T00890000
Conditions at: KALO (WATERLOO , IA, US) observed 1854 UTC 19 March 2019
Temperature: 8.9°C (48°F)
Dewpoint: 0.0°C (32°F) [RH = 54%]
Pressure (altimeter): 30.30 inches Hg (1026.2 mb)
[Sea-level pressure: 1026.9 mb]
Winds: missing
Visibility: 10 or more miles (16+ km)
Ceiling: at least 12,000 feet AGL
Clouds: sky clear below 12,000 feet AGL
Weather: no significant weather observed at this time

METAR text: KALO 191754Z 10SM CLR 08/00 A3031 RMK AO2 SLP273 T00780000 10078 21033 58005
Conditions at: KALO (WATERLOO , IA, US) observed 1754 UTC 19 March 2019
Temperature: 7.8°C (46°F)
Dewpoint: 0.0°C (32°F) [RH = 58%]
Pressure (altimeter): 30.31 inches Hg (1026.5 mb)
[Sea-level pressure: 1027.3 mb]
Winds: missing
Visibility: 10 or more miles (16+ km)
Ceiling: at least 12,000 feet AGL
Clouds: sky clear below 12,000 feet AGL
Weather: no significant weather observed at this time

METAR text: KALO 191654Z 10SM CLR 07/M01 A3032 RMK AO2 SLP277 T00671006
Conditions at: KALO (WATERLOO , IA, US) observed 1654 UTC 19 March 2019
Temperature: 6.7°C (44°F)
Dewpoint: -0.6°C (31°F) [RH = 60%]
Pressure (altimeter): 30.32 inches Hg (1026.8 mb)
[Sea-level pressure: 1027.7 mb]
Winds: missing
Visibility: 10 or more miles (16+ km)
Ceiling: at least 12,000 feet AGL
Clouds: sky clear below 12,000 feet AGL
Weather: no significant weather observed at this time

Forecast for: KALO (WATERLOO , IA, US)
Text: KALO 201451Z 2015/2112 VRB04KT 2SM BR OVC002
Forecast period: 1500 to 1700 UTC 20 March 2019
Forecast type: FROM: standard forecast or significant change
Winds: variable direction winds at 5 MPH (4 knots; 2.1 m/s)
Visibility: 2.00 miles (3.22 km)
Ceiling: 200 feet AGL
Clouds: overcast cloud deck at 200 feet AGL
Weather: BR  (mist)
Text: FM201700 29009KT P6SM BKN060
Forecast period: 1700 to 2100 UTC 20 March 2019
Forecast type: FROM: standard forecast or significant change
Winds: from the WNW (290 degrees) at 10 MPH (9 knots; 4.6 m/s)
Visibility: 6 or more miles 10+ km)
Ceiling: 6000 feet AGL
Clouds: broken clouds at 6000 feet AGL
Weather: no significant weather forecast for this period
Text: FM202100 31013KT P6SM BKN025
Forecast period: 2100 UTC 20 March 2019 to 0300 UTC 21 March 2019
Forecast type: FROM: standard forecast or significant change
Winds: from the NW (310 degrees) at 15 MPH (13 knots; 6.7 m/s)
Visibility: 6 or more miles 10+ km)
Ceiling: 2500 feet AGL
Clouds: broken clouds at 2500 feet AGL
Weather: no significant weather forecast for this period
Text: FM210300 33010KT P6SM BKN015
Forecast period: 0300 to 1200 UTC 21 March 2019
Forecast type: FROM: standard forecast or significant change
Winds: from the NNW (330 degrees) at 12 MPH (10 knots; 5.1 m/s)
Visibility: 6 or more miles 10+ km)
Ceiling: 1500 feet AGL
Clouds: broken clouds at 1500 feet AGL
Weather: no significant weather forecast for this period